createdAt,value
2022-11-18T00:02:13.405Z,38.15
2022-11-18T00:04:45.532Z,43.35
2022-11-18T00:07:17.701Z,40.33
2022-11-18T00:09:49.729Z,40.22
2022-11-18T00:12:40.340Z,42.92
2022-11-18T00:15:12.248Z,42.93
2022-11-18T00:17:44.255Z,42.25
2022-11-18T00:20:16.224Z,43.20
2022-11-18T00:22:48.153Z,42.20
2022-11-18T00:25:20.039Z,43.92
2022-11-18T00:27:52.020Z,40.92
2022-11-18T00:30:24.979Z,44.70
2022-11-18T00:32:56.818Z,39.05
2022-11-18T00:35:28.681Z,36.22
2022-11-18T00:38:00.550Z,41.38
2022-11-18T00:40:32.441Z,36.75
2022-11-18T00:43:04.411Z,37.13
2022-11-18T00:45:36.317Z,37.83
2022-11-18T00:48:08.220Z,39.50
2022-11-18T00:50:40.067Z,46.42
2022-11-18T00:53:11.912Z,51.05
2022-11-18T00:55:44.171Z,50.25
2022-11-18T00:58:16.482Z,49.60
2022-11-18T01:00:52.098Z,46.35
2022-11-18T01:03:25.634Z,44.88
2022-11-18T01:05:57.579Z,44.92
2022-11-18T01:08:29.449Z,49.17
2022-11-18T01:11:21.603Z,47.17
2022-11-18T01:13:54.442Z,42.10
2022-11-18T01:16:28.197Z,45.40
2022-11-18T01:19:00.129Z,45.58
2022-11-18T01:21:31.964Z,38.17
2022-11-18T01:24:04.099Z,40.38
2022-11-18T01:26:36.355Z,39.45
2022-11-18T01:29:08.760Z,38.30
2022-11-18T01:31:55.537Z,39.58
2022-11-18T01:34:32.615Z,39.10
2022-11-18T01:37:04.523Z,35.92
2022-11-18T01:39:36.500Z,34.08
2022-11-18T01:42:16.797Z,33.10
2022-11-18T01:44:59.864Z,32.90
2022-11-18T01:47:37.550Z,31.63
2022-11-18T01:50:10.564Z,32.80
2022-11-18T01:52:45.259Z,34.10
2022-11-18T01:55:25.842Z,32.88
2022-11-18T01:58:12.471Z,36.38
2022-11-18T02:00:44.509Z,30.85
2022-11-18T02:03:17.771Z,31.92
2022-11-18T02:05:51.528Z,33.20
2022-11-18T02:08:23.732Z,28.98
2022-11-18T02:10:55.723Z,29.13
2022-11-18T02:13:27.661Z,29.90
2022-11-18T02:16:02.521Z,28.75
2022-11-18T02:18:58.568Z,30.20
2022-11-18T02:21:46.436Z,35.13
2022-11-18T02:24:43.339Z,34.55
2022-11-18T02:27:26.861Z,34.08
2022-11-18T02:30:10.168Z,32.42
2022-11-18T02:32:45.017Z,31.17
2022-11-18T02:35:37.348Z,33.97
2022-11-18T02:38:24.878Z,31.13
2022-11-18T02:41:01.856Z,34.47
2022-11-18T02:43:40.970Z,35.00
2022-11-18T02:46:17.691Z,33.53
2022-11-18T02:48:52.419Z,35.13
2022-11-18T02:51:27.730Z,33.30
2022-11-18T02:54:07.233Z,35.08
2022-11-18T02:56:39.253Z,34.35
2022-11-18T02:59:11.058Z,34.28
2022-11-18T03:01:43.162Z,29.80
2022-11-18T03:04:16.903Z,32.75
2022-11-18T03:07:05.821Z,27.50
2022-11-18T03:09:41.542Z,27.17
2022-11-18T03:12:41.339Z,26.55
2022-11-18T03:15:27.978Z,27.83
2022-11-18T03:18:24.961Z,25.25
2022-11-18T03:21:11.665Z,24.02
2022-11-18T03:24:07.798Z,23.27
2022-11-18T03:26:42.787Z,22.85
2022-11-18T03:29:29.603Z,25.23
2022-11-18T03:32:26.376Z,24.40
2022-11-18T03:35:07.076Z,28.98
2022-11-18T03:37:41.249Z,27.10
2022-11-18T03:40:20.198Z,31.77
2022-11-18T03:42:56.905Z,28.17
2022-11-18T03:45:37.485Z,26.33
2022-11-18T03:48:22.536Z,31.20
2022-11-18T03:51:01.466Z,27.40
2022-11-18T03:53:36.349Z,27.00
2022-11-18T03:56:18.222Z,25.42
2022-11-18T03:59:00.623Z,26.75
2022-11-18T04:01:43.343Z,28.20
2022-11-18T04:04:15.699Z,33.10
2022-11-18T04:06:54.656Z,31.95
2022-11-18T04:09:32.021Z,28.95
2022-11-18T04:12:08.504Z,28.20
2022-11-18T04:14:43.208Z,27.92
2022-11-18T04:17:19.799Z,27.38
2022-11-18T04:19:51.721Z,24.83
2022-11-18T04:22:23.666Z,27.58
2022-11-18T04:24:55.486Z,24.17
2022-11-18T04:27:27.312Z,26.92
2022-11-18T04:29:59.199Z,28.25
2022-11-18T04:32:31.221Z,25.33
2022-11-18T04:35:03.333Z,26.13
2022-11-18T04:37:35.269Z,27.10
2022-11-18T04:40:07.894Z,27.10
2022-11-18T04:42:39.908Z,24.30
2022-11-18T04:45:12.349Z,25.25
2022-11-18T04:47:44.290Z,25.52
2022-11-18T04:50:16.418Z,24.35
2022-11-18T04:52:48.312Z,24.55
2022-11-18T04:55:20.564Z,26.02
2022-11-18T04:57:52.444Z,27.10
2022-11-18T05:00:24.324Z,24.45
2022-11-18T05:02:56.224Z,23.85
2022-11-18T05:05:28.056Z,24.33
2022-11-18T05:07:59.988Z,25.15
2022-11-18T05:10:31.772Z,28.35
2022-11-18T05:13:03.718Z,26.58
2022-11-18T05:15:35.615Z,26.35
2022-11-18T05:18:11.174Z,27.15
2022-11-18T05:20:43.165Z,25.52
2022-11-18T05:23:15.036Z,28.48
2022-11-18T05:25:46.927Z,26.58
2022-11-18T05:28:20.556Z,26.73
2022-11-18T05:30:52.510Z,27.35
2022-11-18T05:33:24.702Z,27.10
2022-11-18T05:35:56.589Z,28.17
2022-11-18T05:38:28.507Z,28.40
2022-11-18T05:41:00.563Z,28.45
2022-11-18T05:43:33.288Z,24.77
2022-11-18T05:46:05.304Z,24.17
2022-11-18T05:48:37.163Z,25.75
2022-11-18T05:51:09.040Z,28.17
2022-11-18T05:53:40.954Z,27.77
2022-11-18T05:56:24.893Z,24.55
2022-11-18T05:58:56.918Z,25.83
2022-11-18T06:01:37.507Z,23.48
2022-11-18T06:04:24.126Z,24.92
2022-11-18T06:07:02.379Z,24.65
2022-11-18T06:09:39.704Z,25.55
2022-11-18T06:12:16.441Z,26.65
2022-11-18T06:15:20.374Z,24.50
2022-11-18T06:18:26.248Z,24.40
2022-11-18T06:21:01.321Z,26.10
2022-11-18T06:23:35.933Z,24.40
2022-11-18T06:26:09.470Z,27.80
2022-11-18T06:28:42.033Z,26.17
2022-11-18T06:31:13.919Z,27.38
2022-11-18T06:33:45.764Z,23.85
2022-11-18T06:36:17.642Z,25.30
2022-11-18T06:38:49.504Z,26.92
2022-11-18T06:41:21.370Z,25.98
2022-11-18T06:43:53.234Z,25.83
2022-11-18T06:46:43.487Z,25.55
2022-11-18T06:49:15.474Z,26.08
2022-11-18T06:51:47.508Z,27.70
2022-11-18T06:54:19.973Z,23.23
2022-11-18T06:56:51.903Z,24.02
2022-11-18T06:59:24.523Z,25.38
2022-11-18T07:01:57.097Z,27.10
2022-11-18T07:04:28.953Z,28.67
2022-11-18T07:07:00.999Z,29.95
2022-11-18T07:09:34.148Z,27.52
2022-11-18T07:12:06.298Z,26.23
2022-11-18T07:14:38.215Z,27.30
2022-11-18T07:17:10.038Z,27.23
2022-11-18T07:19:41.940Z,25.50
2022-11-18T07:22:14.385Z,23.63
2022-11-18T07:24:46.247Z,24.00
2022-11-18T07:27:18.059Z,25.05
2022-11-18T07:29:49.953Z,26.15
2022-11-18T07:32:21.872Z,23.92
2022-11-18T07:34:53.712Z,23.95
2022-11-18T07:37:25.678Z,25.77
2022-11-18T07:39:59.807Z,26.55
2022-11-18T07:42:42.553Z,31.50
2022-11-18T07:45:27.416Z,34.28
2022-11-18T07:47:59.266Z,29.85
2022-11-18T07:50:31.167Z,32.10
2022-11-18T07:53:03.048Z,35.15
2022-11-18T07:55:34.948Z,36.35
2022-11-18T07:58:06.818Z,36.55
2022-11-18T08:00:38.720Z,40.30
2022-11-18T08:03:14.436Z,42.95
2022-11-18T08:05:46.673Z,37.70
2022-11-18T08:08:18.532Z,44.08
2022-11-18T08:10:50.397Z,41.28
2022-11-18T08:13:22.277Z,39.08
2022-11-18T08:15:55.158Z,47.13
2022-11-18T08:18:29.134Z,42.95
2022-11-18T08:21:04.962Z,48.15
2022-11-18T08:23:41.943Z,48.97
2022-11-18T08:26:15.402Z,47.10
2022-11-18T08:28:47.999Z,56.13
2022-11-18T08:31:25.818Z,55.33
2022-11-18T08:34:06.826Z,57.35
2022-11-18T08:36:39.432Z,57.17
2022-11-18T08:39:11.996Z,56.65
2022-11-18T08:41:46.816Z,56.95
2022-11-18T08:44:18.850Z,52.47
2022-11-18T08:46:50.913Z,55.30
2022-11-18T08:49:25.111Z,54.67
2022-11-18T08:52:00.225Z,54.58
2022-11-18T08:54:32.064Z,60.53
2022-11-18T08:57:04.018Z,52.50
2022-11-18T08:59:35.913Z,59.05
2022-11-18T09:02:19.018Z,55.10
2022-11-18T09:04:51.876Z,61.63
2022-11-18T09:07:23.886Z,52.22
2022-11-18T09:09:55.999Z,47.42
2022-11-18T09:12:28.073Z,48.17
2022-11-18T09:15:13.305Z,39.90
2022-11-18T09:17:46.013Z,37.83
2022-11-18T09:20:18.104Z,36.65
2022-11-18T09:22:49.976Z,35.05
2022-11-18T09:25:21.965Z,33.65
2022-11-18T09:27:55.492Z,28.98
2022-11-18T09:30:27.657Z,30.20
2022-11-18T09:32:59.630Z,28.67
2022-11-18T09:35:32.187Z,27.38
2022-11-18T09:38:04.105Z,26.77
2022-11-18T09:40:53.003Z,27.00
2022-11-18T09:43:43.655Z,25.35
2022-11-18T09:46:24.604Z,28.83
2022-11-18T09:49:14.006Z,44.13
2022-11-18T09:51:48.789Z,33.85
2022-11-18T09:54:26.745Z,30.45
2022-11-18T09:56:58.743Z,32.35
2022-11-18T09:59:33.857Z,28.73
2022-11-18T10:02:34.845Z,28.95
2022-11-18T10:05:20.360Z,33.40
2022-11-18T10:08:07.182Z,31.70
2022-11-18T10:11:07.931Z,38.35
2022-11-18T10:13:45.714Z,38.33
2022-11-18T10:16:36.264Z,43.25
2022-11-18T10:19:29.730Z,48.13
2022-11-18T10:22:34.218Z,48.38
2022-11-18T10:25:13.477Z,42.88
2022-11-18T10:27:47.804Z,53.75
2022-11-18T10:30:22.880Z,53.00
2022-11-18T10:33:00.305Z,54.65
2022-11-18T10:35:38.051Z,46.28
2022-11-18T10:38:15.789Z,38.90
2022-11-18T10:40:50.344Z,42.15
2022-11-18T10:43:45.887Z,37.97
2022-11-18T10:46:25.964Z,38.00
2022-11-18T10:49:17.312Z,39.25
2022-11-18T10:54:36.134Z,37.63
2022-11-18T10:57:35.246Z,36.53
2022-11-18T11:00:34.440Z,33.17
2022-11-18T11:03:37.798Z,34.33
2022-11-18T11:06:21.468Z,34.33
2022-11-18T11:08:57.778Z,39.20
2022-11-18T11:11:34.921Z,37.95
2022-11-18T11:14:15.369Z,39.33
2022-11-18T11:17:01.040Z,37.73
2022-11-18T11:19:49.145Z,41.58
2022-11-18T11:22:21.256Z,44.17
2022-11-18T11:24:53.189Z,40.33
2022-11-18T11:30:26.145Z,40.33
2022-11-18T11:33:03.416Z,43.97
2022-11-18T11:35:46.938Z,43.55
2022-11-18T11:38:59.916Z,37.40
2022-11-18T11:42:08.963Z,39.05
2022-11-18T11:44:49.696Z,39.05
2022-11-18T11:47:49.999Z,36.78
2022-11-18T11:50:31.285Z,36.42
2022-11-18T11:55:53.558Z,39.38
2022-11-18T11:58:50.724Z,35.00
2022-11-18T12:01:57.021Z,34.97
2022-11-18T12:04:47.812Z,36.65
2022-11-18T12:07:24.864Z,34.50
2022-11-18T12:10:17.288Z,32.72
2022-11-18T12:13:22.145Z,35.67
2022-11-18T12:16:24.758Z,34.13
2022-11-18T12:19:13.112Z,32.78
2022-11-18T12:21:45.573Z,33.55
2022-11-18T12:24:17.426Z,36.65
2022-11-18T12:26:51.005Z,34.08
2022-11-18T12:29:25.740Z,33.03
2022-11-18T12:31:59.761Z,34.55
2022-11-18T12:34:38.720Z,36.22
2022-11-18T12:37:26.146Z,31.23
2022-11-18T12:40:00.971Z,31.20
2022-11-18T12:43:05.485Z,31.40
2022-11-18T12:45:52.892Z,33.65
2022-11-18T12:48:38.746Z,35.85
2022-11-18T12:51:16.647Z,29.38
2022-11-18T12:53:50.426Z,32.28
2022-11-18T12:56:23.297Z,30.10
2022-11-18T12:58:57.543Z,34.38
2022-11-18T13:01:34.491Z,30.42
2022-11-18T13:04:16.612Z,30.02
2022-11-18T13:06:49.082Z,28.55
2022-11-18T13:09:24.735Z,29.48
2022-11-18T13:12:01.452Z,28.85
2022-11-18T13:14:59.508Z,26.13
2022-11-18T13:17:51.520Z,25.65
2022-11-18T13:20:36.563Z,25.27
2022-11-18T13:23:30.014Z,30.30
2022-11-18T13:26:26.379Z,24.85
2022-11-18T13:29:20.482Z,25.25
2022-11-18T13:32:08.364Z,26.10
2022-11-18T13:34:48.054Z,27.25
2022-11-18T13:37:25.807Z,26.98
2022-11-18T13:39:58.077Z,26.77
2022-11-18T13:42:31.493Z,26.48
2022-11-18T13:45:04.463Z,28.80
2022-11-18T13:47:48.664Z,28.83
2022-11-18T13:50:25.975Z,27.27
2022-11-18T13:53:03.734Z,29.05
2022-11-18T13:55:44.016Z,28.27
2022-11-18T13:58:18.909Z,28.55
2022-11-18T14:01:03.910Z,29.20
2022-11-18T14:03:53.325Z,31.50
2022-11-18T14:06:38.828Z,28.15
2022-11-18T14:09:29.961Z,29.90
2022-11-18T14:12:25.114Z,30.88
2022-11-18T14:15:21.233Z,28.75
2022-11-18T14:17:57.819Z,31.95
2022-11-18T14:20:31.149Z,35.90
2022-11-18T14:23:05.648Z,33.67
2022-11-18T14:25:37.649Z,34.83
2022-11-18T14:28:18.808Z,32.17
2022-11-18T14:31:03.870Z,33.67
2022-11-18T14:33:36.927Z,35.45
2022-11-18T14:36:14.554Z,33.90
2022-11-18T14:39:25.572Z,34.83
2022-11-18T14:41:46.929Z,36.38
2022-11-18T14:44:20.612Z,33.75
2022-11-18T14:46:58.347Z,36.17
2022-11-18T14:49:31.552Z,38.15
2022-11-18T14:52:04.634Z,36.53
2022-11-18T14:54:36.586Z,35.90
2022-11-18T14:57:17.196Z,36.13
2022-11-18T14:59:49.171Z,37.38
2022-11-18T15:02:21.816Z,38.30
2022-11-18T15:04:53.698Z,38.80
2022-11-18T15:07:25.668Z,38.78
2022-11-18T15:09:57.623Z,37.30
2022-11-18T15:12:29.691Z,37.28
2022-11-18T15:15:01.750Z,38.95
2022-11-18T15:17:35.791Z,39.47
2022-11-18T15:20:14.914Z,37.55
2022-11-18T15:22:46.857Z,38.58
2022-11-18T15:25:18.852Z,43.70
2022-11-18T15:27:50.956Z,43.30
2022-11-18T15:30:24.093Z,96.20
2022-11-18T15:32:56.049Z,41.42
2022-11-18T15:35:28.240Z,40.92
2022-11-18T15:38:00.253Z,41.80
2022-11-18T15:40:32.457Z,45.10
2022-11-18T15:43:04.970Z,48.15
2022-11-18T15:45:36.917Z,43.55
2022-11-18T15:48:09.030Z,43.25
2022-11-18T15:50:40.992Z,46.22
2022-11-18T15:53:12.873Z,43.67
2022-11-18T15:55:44.836Z,43.67
2022-11-18T15:58:17.289Z,45.33
2022-11-18T16:00:49.373Z,43.33
2022-11-18T16:03:21.270Z,46.92
2022-11-18T16:05:53.194Z,49.58
2022-11-18T16:08:25.128Z,49.10
2022-11-18T16:11:15.897Z,45.83
2022-11-18T16:13:48.139Z,49.17
2022-11-18T16:16:28.136Z,46.83
2022-11-18T16:19:02.680Z,50.17
2022-11-18T16:21:37.191Z,53.15
2022-11-18T16:24:12.400Z,66.75
2022-11-18T16:26:44.506Z,59.60
2022-11-18T16:29:17.706Z,51.03
2022-11-18T16:31:52.268Z,57.58
2022-11-18T16:34:27.164Z,57.70
2022-11-18T16:37:02.438Z,55.60
2022-11-18T16:39:34.345Z,46.08
2022-11-18T16:42:08.978Z,48.03
2022-11-18T16:44:41.850Z,48.53
2022-11-18T16:47:15.208Z,52.20
2022-11-18T16:49:47.306Z,56.08
2022-11-18T16:52:19.132Z,55.75
2022-11-18T16:54:52.379Z,57.55
2022-11-18T16:57:25.369Z,60.47
2022-11-18T16:59:57.559Z,62.53
2022-11-18T17:02:29.527Z,57.03
2022-11-18T17:05:01.422Z,61.78
2022-11-18T17:07:38.368Z,66.53
2022-11-18T17:10:19.952Z,56.75
2022-11-18T17:12:52.102Z,59.50
2022-11-18T17:15:23.980Z,53.42
2022-11-18T17:17:55.866Z,60.38
2022-11-18T17:20:27.890Z,51.58
2022-11-18T17:22:59.752Z,47.05
2022-11-18T17:25:33.992Z,48.22
2022-11-18T17:28:06.089Z,51.50
2022-11-18T17:30:37.997Z,51.97
2022-11-18T17:33:10.108Z,49.22
2022-11-18T17:35:41.974Z,50.28
2022-11-18T17:38:14.361Z,50.20
2022-11-18T17:40:46.196Z,45.28
2022-11-18T17:43:18.535Z,39.05
2022-11-18T17:45:52.290Z,43.10
2022-11-18T17:48:26.463Z,34.10
2022-11-18T17:51:06.102Z,35.60
2022-11-18T17:53:42.640Z,34.67
2022-11-18T17:56:15.489Z,30.30
2022-11-18T17:58:49.423Z,32.20
2022-11-18T18:01:22.685Z,36.67
2022-11-18T18:03:54.679Z,42.63
2022-11-18T18:06:27.017Z,34.45
2022-11-18T18:08:59.166Z,29.33
2022-11-18T18:11:31.212Z,28.80
2022-11-18T18:14:15.527Z,26.50
2022-11-18T18:16:50.432Z,31.20
2022-11-18T18:19:23.628Z,24.42
2022-11-18T18:21:55.523Z,29.63
2022-11-18T18:24:27.834Z,24.27
2022-11-18T18:27:00.607Z,17.10
2022-11-18T18:29:32.524Z,17.33
2022-11-18T18:32:04.846Z,15.25
2022-11-18T18:34:36.720Z,14.40
2022-11-18T18:37:08.606Z,17.23
2022-11-18T18:39:40.482Z,16.65
2022-11-18T18:42:12.420Z,13.02
2022-11-18T18:45:02.759Z,17.33
2022-11-18T18:47:35.861Z,11.75
2022-11-18T18:50:07.860Z,11.82
2022-11-18T18:52:39.765Z,15.27
2022-11-18T18:55:11.699Z,15.68
2022-11-18T18:57:43.625Z,11.82
2022-11-18T19:00:15.788Z,10.52
2022-11-18T19:02:47.695Z,12.23
2022-11-18T19:05:29.211Z,12.90
2022-11-18T19:08:11.038Z,10.02
2022-11-18T19:10:43.106Z,15.38
2022-11-18T19:13:15.113Z,11.02
2022-11-18T19:15:47.059Z,13.48
2022-11-18T19:18:19.229Z,12.48
2022-11-18T19:20:51.332Z,16.95
2022-11-18T19:23:23.260Z,12.10
2022-11-18T19:26:01.569Z,14.23
2022-11-18T19:28:33.506Z,15.18
2022-11-18T19:31:05.679Z,11.32
2022-11-18T19:33:37.936Z,11.65
2022-11-18T19:36:10.961Z,12.65
2022-11-18T19:38:42.869Z,12.10
2022-11-18T19:41:15.394Z,14.63
2022-11-18T19:43:47.312Z,13.02
2022-11-18T19:46:19.249Z,12.32
2022-11-18T19:48:51.922Z,19.38
2022-11-18T19:51:24.483Z,12.30
2022-11-18T19:53:59.710Z,15.75
2022-11-18T19:56:31.800Z,13.10
2022-11-18T19:59:03.808Z,18.00
2022-11-18T20:01:35.742Z,13.50
2022-11-18T20:04:07.709Z,12.20
2022-11-18T20:06:40.452Z,13.40
2022-11-18T20:09:13.056Z,11.05
2022-11-18T20:11:45.210Z,12.35
2022-11-18T20:14:17.428Z,10.48
2022-11-18T20:16:51.598Z,13.65
2022-11-18T20:19:23.893Z,14.32
2022-11-18T20:21:55.894Z,18.88
2022-11-18T20:24:27.779Z,13.25
2022-11-18T20:26:59.702Z,12.70
2022-11-18T20:29:31.624Z,11.93
2022-11-18T20:32:03.580Z,11.75
2022-11-18T20:34:35.556Z,10.25
2022-11-18T20:37:07.683Z,11.48
2022-11-18T20:39:39.627Z,10.85
2022-11-18T20:42:30.278Z,10.60
2022-11-18T20:45:02.405Z,15.60
2022-11-18T20:47:34.351Z,10.82
2022-11-18T20:50:06.752Z,13.68
2022-11-18T20:52:39.518Z,11.85
2022-11-18T20:55:11.507Z,10.88
2022-11-18T20:57:43.380Z,9.20
2022-11-18T21:00:15.789Z,9.15
2022-11-18T21:02:47.744Z,9.52
2022-11-18T21:05:19.745Z,10.35
2022-11-18T21:07:53.455Z,10.82
2022-11-18T21:10:25.730Z,10.05
2022-11-18T21:13:16.314Z,16.40
2022-11-18T21:15:48.380Z,18.00
2022-11-18T21:18:20.429Z,16.48
2022-11-18T21:21:15.989Z,16.00
2022-11-18T21:23:47.929Z,13.65
2022-11-18T21:26:19.989Z,9.68
2022-11-18T21:28:55.944Z,12.25
2022-11-18T21:31:29.041Z,7.53
2022-11-18T21:34:01.380Z,9.57
2022-11-18T21:36:33.700Z,10.55
2022-11-18T21:39:06.130Z,10.73
2022-11-18T21:41:38.670Z,12.70
2022-11-18T21:44:12.586Z,10.07
2022-11-18T21:46:44.544Z,11.88
2022-11-18T21:49:17.136Z,11.07
2022-11-18T21:51:49.368Z,10.05
2022-11-18T21:54:21.267Z,12.77
2022-11-18T21:56:53.795Z,12.20
2022-11-18T21:59:25.754Z,13.25
2022-11-18T22:01:57.770Z,9.88
2022-11-18T22:04:48.539Z,9.13
2022-11-18T22:07:24.886Z,12.52
2022-11-18T22:09:56.961Z,12.38
2022-11-18T22:12:28.884Z,13.95
2022-11-18T22:15:00.853Z,13.52
2022-11-18T22:17:32.705Z,13.52
2022-11-18T22:20:05.145Z,12.15
2022-11-18T22:22:36.999Z,12.63
2022-11-18T22:25:09.217Z,14.77
2022-11-18T22:27:41.049Z,15.02
2022-11-18T22:30:13.012Z,13.82
2022-11-18T22:32:44.977Z,12.48
2022-11-18T22:35:16.901Z,16.05
2022-11-18T22:37:48.756Z,12.48
2022-11-18T22:40:20.616Z,14.32
2022-11-18T22:42:52.566Z,12.30
2022-11-18T22:45:24.596Z,12.05
2022-11-18T22:47:56.442Z,11.48
2022-11-18T22:50:28.323Z,13.63
2022-11-18T22:53:00.165Z,10.75
2022-11-18T22:55:32.013Z,14.00
2022-11-18T22:58:03.961Z,10.82
2022-11-18T23:00:35.874Z,13.00
2022-11-18T23:03:08.437Z,12.82
2022-11-18T23:05:40.363Z,11.45
2022-11-18T23:08:12.321Z,17.52
2022-11-18T23:10:44.310Z,15.95
2022-11-18T23:13:35.134Z,13.13
2022-11-18T23:16:07.274Z,11.37
2022-11-18T23:18:39.261Z,8.68
2022-11-18T23:21:11.237Z,11.07
2022-11-18T23:23:44.402Z,12.30
2022-11-18T23:26:17.242Z,7.65
2022-11-18T23:28:49.508Z,7.60
2022-11-18T23:31:26.407Z,12.60
2022-11-18T23:33:58.610Z,9.02
2022-11-18T23:36:30.513Z,8.15
2022-11-18T23:39:02.397Z,9.38
2022-11-18T23:41:34.568Z,8.30
2022-11-18T23:44:07.045Z,9.00
2022-11-18T23:46:38.941Z,9.73
2022-11-18T23:49:10.896Z,7.32
2022-11-18T23:51:42.757Z,9.40
2022-11-18T23:54:14.711Z,8.68
2022-11-18T23:56:46.594Z,13.23
2022-11-18T23:59:18.756Z,10.02
